Scottsbluff, Nebraska
Current Conditions -  °F | °C
As of 7:53 PM on Monday 20 Oct 2014 (Local Time) from KBFF Reporting Station
Clear Clear  
Wind Chill: 56°   Ceiling: Unl
Heat Index: 56°   Visibility: 10mi
Dew Point: 39°   Wind: 9mph
Humidity: 53%   Direction: 90°E
Pressure: 29.99"   Gusts: NA
Location:  41.86°N, 103.66°W
Report Text: KBFF 210153Z AUTO 09008KT 10SM CLR 13/04 A2999 RMK AO2 SLP148 T01330039
Loading
Personal Weather Stations






























Interactive Weather Map
Tropical Storm Tracking
New forecast layout! Learn more

10-Day Weather Forecast

Advertisements
Track Severe Weather on mobile